sensor_id;sensor_type;location;lat;lon;timestamp;P1;durP1;ratioP1;P2;durP2;ratioP2
10166;SDS011;62970;53.130;8.244;2023-08-30T00:00:06;4.33;;;3.70;;
10166;SDS011;62970;53.130;8.244;2023-08-30T00:02:42;4.20;;;3.80;;
10166;SDS011;62970;53.130;8.244;2023-08-30T00:05:12;4.30;;;3.90;;
10166;SDS011;62970;53.130;8.244;2023-08-30T00:07:42;3.93;;;3.63;;
10166;SDS011;62970;53.130;8.244;2023-08-30T00:10:11;4.10;;;3.70;;
10166;SDS011;62970;53.130;8.244;2023-08-30T00:12:40;4.13;;;3.77;;
10166;SDS011;62970;53.130;8.244;2023-08-30T00:15:12;4.00;;;3.70;;
10166;SDS011;62970;53.130;8.244;2023-08-30T00:17:42;5.03;;;3.87;;
10166;SDS011;62970;53.130;8.244;2023-08-30T00:20:12;3.63;;;3.33;;
10166;SDS011;62970;53.130;8.244;2023-08-30T00:22:41;4.00;;;3.60;;
10166;SDS011;62970;53.130;8.244;2023-08-30T00:25:10;3.73;;;3.43;;
10166;SDS011;62970;53.130;8.244;2023-08-30T00:27:39;3.73;;;3.37;;
10166;SDS011;62970;53.130;8.244;2023-08-30T00:30:09;3.97;;;3.50;;
10166;SDS011;62970;53.130;8.244;2023-08-30T00:32:42;3.77;;;3.47;;
10166;SDS011;62970;53.130;8.244;2023-08-30T00:35:11;4.13;;;3.63;;
10166;SDS011;62970;53.130;8.244;2023-08-30T00:37:40;3.53;;;3.23;;
10166;SDS011;62970;53.130;8.244;2023-08-30T00:40:07;5.03;;;3.50;;
10166;SDS011;62970;53.130;8.244;2023-08-30T00:42:37;3.47;;;3.17;;
10166;SDS011;62970;53.130;8.244;2023-08-30T00:45:06;3.60;;;3.30;;
10166;SDS011;62970;53.130;8.244;2023-08-30T00:47:38;3.63;;;3.33;;
10166;SDS011;62970;53.130;8.244;2023-08-30T00:50:08;4.50;;;3.40;;
10166;SDS011;62970;53.130;8.244;2023-08-30T00:52:38;3.40;;;3.10;;
10166;SDS011;62970;53.130;8.244;2023-08-30T00:55:07;3.63;;;3.33;;
10166;SDS011;62970;53.130;8.244;2023-08-30T00:57:37;3.83;;;3.43;;
10166;SDS011;62970;53.130;8.244;2023-08-30T01:00:07;3.07;;;2.87;;
10166;SDS011;62970;53.130;8.244;2023-08-30T01:02:41;3.33;;;3.03;;
10166;SDS011;62970;53.130;8.244;2023-08-30T01:05:11;3.20;;;2.90;;
10166;SDS011;62970;53.130;8.244;2023-08-30T01:07:41;3.40;;;3.10;;
10166;SDS011;62970;53.130;8.244;2023-08-30T01:10:10;3.57;;;2.80;;
10166;SDS011;62970;53.130;8.244;2023-08-30T01:12:40;5.00;;;3.00;;
10166;SDS011;62970;53.130;8.244;2023-08-30T01:15:15;3.17;;;2.87;;
10166;SDS011;62970;53.130;8.244;2023-08-30T01:17:51;3.13;;;2.83;;
10166;SDS011;62970;53.130;8.244;2023-08-30T01:20:21;3.17;;;2.70;;
10166;SDS011;62970;53.130;8.244;2023-08-30T01:22:53;3.23;;;3.03;;
10166;SDS011;62970;53.130;8.244;2023-08-30T01:25:32;2.80;;;2.60;;
10166;SDS011;62970;53.130;8.244;2023-08-30T01:28:19;3.20;;;2.90;;
10166;SDS011;62970;53.130;8.244;2023-08-30T01:30:51;2.77;;;2.57;;
10166;SDS011;62970;53.130;8.244;2023-08-30T01:33:22;3.20;;;2.90;;
10166;SDS011;62970;53.130;8.244;2023-08-30T01:35:53;2.87;;;2.63;;
10166;SDS011;62970;53.130;8.244;2023-08-30T01:38:24;3.13;;;2.67;;
10166;SDS011;62970;53.130;8.244;2023-08-30T01:40:55;3.13;;;2.93;;
10166;SDS011;62970;53.130;8.244;2023-08-30T01:43:30;2.90;;;2.70;;
10166;SDS011;62970;53.130;8.244;2023-08-30T01:46:01;3.20;;;3.00;;
10166;SDS011;62970;53.130;8.244;2023-08-30T01:48:31;2.67;;;2.47;;
10166;SDS011;62970;53.130;8.244;2023-08-30T01:51:03;3.00;;;2.80;;
10166;SDS011;62970;53.130;8.244;2023-08-30T01:53:33;3.40;;;3.00;;
10166;SDS011;62970;53.130;8.244;2023-08-30T01:56:02;3.00;;;2.80;;
10166;SDS011;62970;53.130;8.244;2023-08-30T01:58:34;3.20;;;2.90;;
10166;SDS011;62970;53.130;8.244;2023-08-30T02:01:04;3.53;;;3.23;;
10166;SDS011;62970;53.130;8.244;2023-08-30T02:03:33;3.33;;;2.90;;
10166;SDS011;62970;53.130;8.244;2023-08-30T02:06:05;7.20;;;3.33;;
10166;SDS011;62970;53.130;8.244;2023-08-30T02:08:41;3.20;;;3.00;;
10166;SDS011;62970;53.130;8.244;2023-08-30T02:11:19;3.30;;;2.87;;
10166;SDS011;62970;53.130;8.244;2023-08-30T02:13:56;3.20;;;2.90;;
10166;SDS011;62970;53.130;8.244;2023-08-30T02:16:27;3.27;;;3.07;;
10166;SDS011;62970;53.130;8.244;2023-08-30T02:18:57;4.10;;;3.20;;
10166;SDS011;62970;53.130;8.244;2023-08-30T02:21:27;3.47;;;3.20;;
10166;SDS011;62970;53.130;8.244;2023-08-30T02:23:56;3.40;;;2.90;;
10166;SDS011;62970;53.130;8.244;2023-08-30T02:26:26;3.50;;;3.30;;
10166;SDS011;62970;53.130;8.244;2023-08-30T02:28:57;3.50;;;3.20;;
10166;SDS011;62970;53.130;8.244;2023-08-30T02:31:27;6.30;;;3.40;;
10166;SDS011;62970;53.130;8.244;2023-08-30T02:33:56;4.33;;;3.50;;
10166;SDS011;62970;53.130;8.244;2023-08-30T02:36:27;4.03;;;3.47;;
10166;SDS011;62970;53.130;8.244;2023-08-30T02:38:56;3.80;;;3.50;;
10166;SDS011;62970;53.130;8.244;2023-08-30T02:41:26;3.97;;;3.67;;
10166;SDS011;62970;53.130;8.244;2023-08-30T02:43:58;4.43;;;4.03;;
10166;SDS011;62970;53.130;8.244;2023-08-30T02:46:27;4.00;;;3.70;;
10166;SDS011;62970;53.130;8.244;2023-08-30T02:48:57;3.60;;;3.27;;
10166;SDS011;62970;53.130;8.244;2023-08-30T02:51:30;3.90;;;3.60;;
10166;SDS011;62970;53.130;8.244;2023-08-30T11:03:54;5.80;;;5.20;;
10166;SDS011;62970;53.130;8.244;2023-08-30T11:06:25;5.70;;;5.20;;
10166;SDS011;62970;53.130;8.244;2023-08-30T11:08:55;5.90;;;5.40;;
10166;SDS011;62970;53.130;8.244;2023-08-30T11:11:25;6.70;;;5.77;;
10166;SDS011;62970;53.130;8.244;2023-08-30T11:14:03;6.77;;;6.17;;
10166;SDS011;62970;53.130;8.244;2023-08-30T11:16:34;6.47;;;5.87;;
10166;SDS011;62970;53.130;8.244;2023-08-30T11:19:11;6.13;;;5.53;;
10166;SDS011;62970;53.130;8.244;2023-08-30T11:21:43;6.47;;;5.63;;
10166;SDS011;62970;53.130;8.244;2023-08-30T11:24:14;5.33;;;4.83;;
10166;SDS011;62970;53.130;8.244;2023-08-30T11:26:44;6.20;;;5.37;;
10166;SDS011;62970;53.130;8.244;2023-08-30T11:29:20;6.10;;;5.50;;
10166;SDS011;62970;53.130;8.244;2023-08-30T11:31:50;6.20;;;4.87;;
10166;SDS011;62970;53.130;8.244;2023-08-30T11:34:38;5.63;;;5.03;;
10166;SDS011;62970;53.130;8.244;2023-08-30T11:37:08;6.37;;;5.77;;
10166;SDS011;62970;53.130;8.244;2023-08-30T11:39:39;5.87;;;5.17;;
10166;SDS011;62970;53.130;8.244;2023-08-30T11:42:10;6.53;;;5.83;;
10166;SDS011;62970;53.130;8.244;2023-08-30T11:44:41;6.37;;;5.03;;
10166;SDS011;62970;53.130;8.244;2023-08-30T11:47:17;5.90;;;5.40;;
10166;SDS011;62970;53.130;8.244;2023-08-30T11:49:51;7.20;;;5.27;;
10166;SDS011;62970;53.130;8.244;2023-08-30T11:52:25;5.43;;;4.93;;
10166;SDS011;62970;53.130;8.244;2023-08-30T11:54:54;5.23;;;4.83;;
10166;SDS011;62970;53.130;8.244;2023-08-30T11:57:24;5.47;;;4.97;;
10166;SDS011;62970;53.130;8.244;2023-08-30T11:59:54;5.70;;;4.90;;
10166;SDS011;62970;53.130;8.244;2023-08-30T12:02:36;5.13;;;4.63;;
10166;SDS011;62970;53.130;8.244;2023-08-30T12:05:12;6.00;;;5.50;;
10166;SDS011;62970;53.130;8.244;2023-08-30T12:07:59;5.20;;;4.70;;
10166;SDS011;62970;53.130;8.244;2023-08-30T12:10:29;6.10;;;5.23;;
10166;SDS011;62970;53.130;8.244;2023-08-30T12:12:59;6.57;;;5.90;;
10166;SDS011;62970;53.130;8.244;2023-08-30T12:15:32;7.63;;;6.57;;
10166;SDS011;62970;53.130;8.244;2023-08-30T12:18:09;7.93;;;5.60;;
10166;SDS011;62970;53.130;8.244;2023-08-30T12:20:42;7.07;;;5.50;;
10166;SDS011;62970;53.130;8.244;2023-08-30T12:23:21;6.60;;;5.90;;
10166;SDS011;62970;53.130;8.244;2023-08-30T12:25:58;6.47;;;5.83;;
10166;SDS011;62970;53.130;8.244;2023-08-30T12:28:32;6.43;;;5.83;;
10166;SDS011;62970;53.130;8.244;2023-08-30T12:31:06;7.13;;;6.03;;
10166;SDS011;62970;53.130;8.244;2023-08-30T12:33:36;6.73;;;5.57;;
10166;SDS011;62970;53.130;8.244;2023-08-30T12:36:10;6.57;;;5.97;;
10166;SDS011;62970;53.130;8.244;2023-08-30T12:38:41;7.90;;;6.43;;
10166;SDS011;62970;53.130;8.244;2023-08-30T12:41:12;6.53;;;5.93;;
10166;SDS011;62970;53.130;8.244;2023-08-30T12:43:41;6.80;;;6.03;;
10166;SDS011;62970;53.130;8.244;2023-08-30T12:46:12;6.67;;;5.97;;
10166;SDS011;62970;53.130;8.244;2023-08-30T12:48:49;7.10;;;6.40;;
10166;SDS011;62970;53.130;8.244;2023-08-30T12:51:24;7.53;;;6.83;;
10166;SDS011;62970;53.130;8.244;2023-08-30T12:54:02;7.43;;;6.73;;
10166;SDS011;62970;53.130;8.244;2023-08-30T12:56:37;7.50;;;6.80;;
10166;SDS011;62970;53.130;8.244;2023-08-30T16:32:06;5.23;;;4.77;;
10166;SDS011;62970;53.130;8.244;2023-08-30T16:34:35;5.10;;;4.70;;
10166;SDS011;62970;53.130;8.244;2023-08-30T16:37:05;4.87;;;4.47;;
10166;SDS011;62970;53.130;8.244;2023-08-30T16:42:20;5.10;;;4.70;;
10166;SDS011;62970;53.130;8.244;2023-08-30T16:44:52;5.37;;;4.90;;
10166;SDS011;62970;53.130;8.244;2023-08-30T16:47:25;5.20;;;4.80;;
10166;SDS011;62970;53.130;8.244;2023-08-30T16:52:39;5.37;;;4.90;;
10166;SDS011;62970;53.130;8.244;2023-08-30T16:55:13;5.60;;;5.07;;
10166;SDS011;62970;53.130;8.244;2023-08-30T16:57:45;5.73;;;5.23;;
10166;SDS011;62970;53.130;8.244;2023-08-30T17:00:14;4.90;;;4.50;;
10166;SDS011;62970;53.130;8.244;2023-08-30T17:02:50;5.10;;;4.70;;
10166;SDS011;62970;53.130;8.244;2023-08-30T17:05:22;4.87;;;4.47;;
10166;SDS011;62970;53.130;8.244;2023-08-30T17:07:53;5.47;;;4.97;;
10166;SDS011;62970;53.130;8.244;2023-08-30T17:10:22;5.43;;;4.93;;
10166;SDS011;62970;53.130;8.244;2023-08-30T17:12:52;5.47;;;5.00;;
10166;SDS011;62970;53.130;8.244;2023-08-30T17:15:22;4.70;;;4.30;;
10166;SDS011;62970;53.130;8.244;2023-08-30T17:17:55;5.47;;;4.97;;
10166;SDS011;62970;53.130;8.244;2023-08-30T17:23:27;5.43;;;4.93;;
10166;SDS011;62970;53.130;8.244;2023-08-30T17:25:56;5.50;;;5.10;;
10166;SDS011;62970;53.130;8.244;2023-08-30T17:28:26;4.80;;;4.40;;
10166;SDS011;62970;53.130;8.244;2023-08-30T17:37:06;2.10;;;1.90;;
10166;SDS011;62970;53.130;8.244;2023-08-30T17:45:43;1.80;;;1.70;;
10166;SDS011;62970;53.130;8.244;2023-08-30T17:48:13;1.93;;;1.37;;
10166;SDS011;62970;53.130;8.244;2023-08-30T17:54:06;1.97;;;1.20;;
10166;SDS011;62970;53.130;8.244;2023-08-30T18:06:17;1.17;;;1.00;;
10166;SDS011;62970;53.130;8.244;2023-08-30T18:08:58;1.03;;;1.03;;
10166;SDS011;62970;53.130;8.244;2023-08-30T18:43:21;1.13;;;1.13;;
10166;SDS011;62970;53.130;8.244;2023-08-30T18:46:14;1.37;;;1.10;;
10166;SDS011;62970;53.130;8.244;2023-08-30T18:48:47;1.30;;;1.20;;
10166;SDS011;62970;53.130;8.244;2023-08-30T18:51:20;1.23;;;1.20;;
10166;SDS011;62970;53.130;8.244;2023-08-30T18:53:52;1.50;;;1.30;;
10166;SDS011;62970;53.130;8.244;2023-08-30T18:56:21;1.40;;;1.30;;
10166;SDS011;62970;53.130;8.244;2023-08-30T18:58:56;1.00;;;0.97;;
10166;SDS011;62970;53.130;8.244;2023-08-30T19:01:26;1.30;;;1.03;;
10166;SDS011;62970;53.130;8.244;2023-08-30T19:03:56;1.20;;;1.10;;
10166;SDS011;62970;53.130;8.244;2023-08-30T19:06:26;1.37;;;1.13;;
10166;SDS011;62970;53.130;8.244;2023-08-30T19:08:56;1.20;;;1.10;;
10166;SDS011;62970;53.130;8.244;2023-08-30T19:11:25;1.30;;;1.20;;
10166;SDS011;62970;53.130;8.244;2023-08-30T19:13:57;1.10;;;1.10;;
10166;SDS011;62970;53.130;8.244;2023-08-30T19:16:28;0.80;;;0.80;;
10166;SDS011;62970;53.130;8.244;2023-08-30T19:19:00;1.60;;;1.20;;
10166;SDS011;62970;53.130;8.244;2023-08-30T19:21:30;1.43;;;1.33;;
10166;SDS011;62970;53.130;8.244;2023-08-30T19:24:01;0.93;;;0.93;;
10166;SDS011;62970;53.130;8.244;2023-08-30T19:26:31;1.93;;;1.20;;
10166;SDS011;62970;53.130;8.244;2023-08-30T19:29:04;1.40;;;1.30;;
10166;SDS011;62970;53.130;8.244;2023-08-30T19:31:33;3.20;;;1.73;;
10166;SDS011;62970;53.130;8.244;2023-08-30T19:34:03;1.40;;;1.30;;
10166;SDS011;62970;53.130;8.244;2023-08-30T19:36:32;1.23;;;1.13;;
10166;SDS011;62970;53.130;8.244;2023-08-30T19:39:02;1.43;;;1.33;;
10166;SDS011;62970;53.130;8.244;2023-08-30T19:41:33;1.63;;;1.53;;
10166;SDS011;62970;53.130;8.244;2023-08-30T19:44:05;1.47;;;1.37;;
10166;SDS011;62970;53.130;8.244;2023-08-30T19:46:37;1.47;;;1.37;;
10166;SDS011;62970;53.130;8.244;2023-08-30T19:49:06;2.83;;;1.30;;
10166;SDS011;62970;53.130;8.244;2023-08-30T19:51:37;1.87;;;1.60;;
10166;SDS011;62970;53.130;8.244;2023-08-30T19:54:06;1.50;;;1.40;;
10166;SDS011;62970;53.130;8.244;2023-08-30T19:56:35;1.53;;;1.43;;
10166;SDS011;62970;53.130;8.244;2023-08-30T19:59:08;2.00;;;1.90;;
10166;SDS011;62970;53.130;8.244;2023-08-30T20:01:39;1.70;;;1.60;;
10166;SDS011;62970;53.130;8.244;2023-08-30T20:04:08;2.00;;;1.90;;
10166;SDS011;62970;53.130;8.244;2023-08-30T20:06:38;1.60;;;1.50;;
10166;SDS011;62970;53.130;8.244;2023-08-30T20:09:08;1.90;;;1.70;;
10166;SDS011;62970;53.130;8.244;2023-08-30T20:11:37;2.10;;;1.90;;
10166;SDS011;62970;53.130;8.244;2023-08-30T20:14:09;2.27;;;2.00;;
10166;SDS011;62970;53.130;8.244;2023-08-30T20:16:40;2.07;;;1.93;;
10166;SDS011;62970;53.130;8.244;2023-08-30T20:19:13;2.30;;;2.10;;
10166;SDS011;62970;53.130;8.244;2023-08-30T20:21:43;2.60;;;2.40;;
10166;SDS011;62970;53.130;8.244;2023-08-30T20:24:13;2.53;;;2.20;;
10166;SDS011;62970;53.130;8.244;2023-08-30T20:26:44;2.30;;;2.10;;
10166;SDS011;62970;53.130;8.244;2023-08-30T20:29:17;2.40;;;2.20;;
10166;SDS011;62970;53.130;8.244;2023-08-30T20:31:47;2.40;;;2.20;;
10166;SDS011;62970;53.130;8.244;2023-08-30T20:34:17;2.87;;;2.03;;
10166;SDS011;62970;53.130;8.244;2023-08-30T20:36:46;2.40;;;2.20;;
10166;SDS011;62970;53.130;8.244;2023-08-30T20:39:17;2.00;;;1.90;;
10166;SDS011;62970;53.130;8.244;2023-08-30T20:41:46;2.40;;;2.20;;
10166;SDS011;62970;53.130;8.244;2023-08-30T20:44:22;1.90;;;1.80;;
10166;SDS011;62970;53.130;8.244;2023-08-30T20:46:51;2.53;;;2.33;;
10166;SDS011;62970;53.130;8.244;2023-08-30T20:49:20;1.93;;;1.83;;
10166;SDS011;62970;53.130;8.244;2023-08-30T20:51:49;2.07;;;1.93;;
10166;SDS011;62970;53.130;8.244;2023-08-30T20:54:18;2.40;;;2.10;;
10166;SDS011;62970;53.130;8.244;2023-08-30T20:56:48;2.43;;;2.23;;
10166;SDS011;62970;53.130;8.244;2023-08-30T20:59:17;2.20;;;2.10;;
10166;SDS011;62970;53.130;8.244;2023-08-30T21:01:49;2.50;;;2.30;;
10166;SDS011;62970;53.130;8.244;2023-08-30T21:04:19;2.33;;;2.13;;
10166;SDS011;62970;53.130;8.244;2023-08-30T21:06:48;2.43;;;2.23;;
10166;SDS011;62970;53.130;8.244;2023-08-30T21:09:20;2.53;;;2.33;;
10166;SDS011;62970;53.130;8.244;2023-08-30T21:11:49;2.50;;;2.30;;
10166;SDS011;62970;53.130;8.244;2023-08-30T21:14:18;1.93;;;1.83;;
10166;SDS011;62970;53.130;8.244;2023-08-30T21:16:50;2.47;;;2.27;;
10166;SDS011;62970;53.130;8.244;2023-08-30T21:19:19;2.20;;;2.10;;
10166;SDS011;62970;53.130;8.244;2023-08-30T21:21:49;2.60;;;2.40;;
10166;SDS011;62970;53.130;8.244;2023-08-30T21:24:19;2.37;;;2.17;;
10166;SDS011;62970;53.130;8.244;2023-08-30T21:26:48;2.90;;;2.70;;
10166;SDS011;62970;53.130;8.244;2023-08-30T21:29:19;2.60;;;2.33;;
10166;SDS011;62970;53.130;8.244;2023-08-30T21:34:36;2.87;;;2.40;;
10166;SDS011;62970;53.130;8.244;2023-08-30T21:37:05;2.67;;;2.47;;
10166;SDS011;62970;53.130;8.244;2023-08-30T21:39:34;2.50;;;2.30;;
10166;SDS011;62970;53.130;8.244;2023-08-30T21:42:05;2.23;;;2.13;;
10166;SDS011;62970;53.130;8.244;2023-08-30T21:44:35;2.37;;;2.10;;
10166;SDS011;62970;53.130;8.244;2023-08-30T21:47:04;2.53;;;2.33;;
10166;SDS011;62970;53.130;8.244;2023-08-30T21:49:36;2.60;;;2.40;;
10166;SDS011;62970;53.130;8.244;2023-08-30T21:52:05;2.60;;;2.40;;
10166;SDS011;62970;53.130;8.244;2023-08-30T21:54:35;2.63;;;2.43;;
10166;SDS011;62970;53.130;8.244;2023-08-30T21:57:04;2.60;;;2.40;;
10166;SDS011;62970;53.130;8.244;2023-08-30T21:59:33;2.80;;;2.47;;
10166;SDS011;62970;53.130;8.244;2023-08-30T22:02:04;2.50;;;2.00;;
10166;SDS011;62970;53.130;8.244;2023-08-30T22:04:36;2.40;;;2.20;;
10166;SDS011;62970;53.130;8.244;2023-08-30T22:07:06;2.23;;;2.10;;
10166;SDS011;62970;53.130;8.244;2023-08-30T22:09:36;2.33;;;2.13;;
10166;SDS011;62970;53.130;8.244;2023-08-30T22:12:06;2.23;;;2.03;;
10166;SDS011;62970;53.130;8.244;2023-08-30T22:14:36;2.87;;;2.20;;
10166;SDS011;62970;53.130;8.244;2023-08-30T22:17:08;2.37;;;2.17;;
10166;SDS011;62970;53.130;8.244;2023-08-30T22:19:38;2.93;;;2.50;;
10166;SDS011;62970;53.130;8.244;2023-08-30T22:22:07;2.37;;;2.17;;
10166;SDS011;62970;53.130;8.244;2023-08-30T22:24:38;2.33;;;2.00;;
10166;SDS011;62970;53.130;8.244;2023-08-30T22:27:08;2.40;;;2.20;;
10166;SDS011;62970;53.130;8.244;2023-08-30T22:29:37;3.00;;;2.30;;
10166;SDS011;62970;53.130;8.244;2023-08-30T22:32:09;2.50;;;2.30;;
10166;SDS011;62970;53.130;8.244;2023-08-30T22:34:38;2.40;;;2.07;;
10166;SDS011;62970;53.130;8.244;2023-08-30T22:37:07;2.93;;;2.30;;
10166;SDS011;62970;53.130;8.244;2023-08-30T22:39:37;2.27;;;2.07;;
10166;SDS011;62970;53.130;8.244;2023-08-30T22:42:06;2.33;;;2.13;;
10166;SDS011;62970;53.130;8.244;2023-08-30T22:44:36;5.37;;;2.40;;
10166;SDS011;62970;53.130;8.244;2023-08-30T22:47:05;3.57;;;2.23;;
10166;SDS011;62970;53.130;8.244;2023-08-30T22:49:39;2.40;;;2.20;;
10166;SDS011;62970;53.130;8.244;2023-08-30T22:52:24;5.47;;;2.13;;
10166;SDS011;62970;53.130;8.244;2023-08-30T22:54:54;2.50;;;1.80;;
10166;SDS011;62970;53.130;8.244;2023-08-30T22:57:23;2.60;;;2.17;;
10166;SDS011;62970;53.130;8.244;2023-08-30T22:59:53;2.20;;;1.87;;
10166;SDS011;62970;53.130;8.244;2023-08-30T23:02:25;3.37;;;1.90;;
10166;SDS011;62970;53.130;8.244;2023-08-30T23:04:54;3.60;;;2.10;;
10166;SDS011;62970;53.130;8.244;2023-08-30T23:07:23;3.87;;;1.90;;
10166;SDS011;62970;53.130;8.244;2023-08-30T23:09:53;3.70;;;1.93;;
10166;SDS011;62970;53.130;8.244;2023-08-30T23:12:22;3.23;;;1.90;;
10166;SDS011;62970;53.130;8.244;2023-08-30T23:14:52;2.17;;;2.00;;
10166;SDS011;62970;53.130;8.244;2023-08-30T23:17:24;4.97;;;2.07;;
10166;SDS011;62970;53.130;8.244;2023-08-30T23:19:55;3.40;;;1.80;;
10166;SDS011;62970;53.130;8.244;2023-08-30T23:22:26;3.30;;;1.93;;
10166;SDS011;62970;53.130;8.244;2023-08-30T23:25:00;2.00;;;1.80;;
10166;SDS011;62970;53.130;8.244;2023-08-30T23:27:30;2.70;;;2.07;;
10166;SDS011;62970;53.130;8.244;2023-08-30T23:30:01;4.00;;;2.30;;
10166;SDS011;62970;53.130;8.244;2023-08-30T23:32:37;2.33;;;2.13;;
10166;SDS011;62970;53.130;8.244;2023-08-30T23:35:06;3.37;;;2.10;;
10166;SDS011;62970;53.130;8.244;2023-08-30T23:37:36;3.53;;;1.90;;
10166;SDS011;62970;53.130;8.244;2023-08-30T23:40:06;2.50;;;1.93;;
10166;SDS011;62970;53.130;8.244;2023-08-30T23:42:39;3.93;;;2.10;;
10166;SDS011;62970;53.130;8.244;2023-08-30T23:45:09;2.40;;;2.00;;
10166;SDS011;62970;53.130;8.244;2023-08-30T23:47:41;3.40;;;2.17;;
10166;SDS011;62970;53.130;8.244;2023-08-30T23:50:11;3.33;;;2.07;;
10166;SDS011;62970;53.130;8.244;2023-08-30T23:52:40;3.67;;;1.90;;
10166;SDS011;62970;53.130;8.244;2023-08-30T23:55:10;2.37;;;1.90;;
10166;SDS011;62970;53.130;8.244;2023-08-30T23:57:39;2.70;;;2.13;;
